Time;durP1;ratioP1;P1;durP2;ratioP2;P2;SDS_P1;SDS_P2;PMS_P1;PMS_P2;Temp;Humidity;BMP_temperature;BMP_pressure;BME280_temperature;BME280_humidity;BME280_pressure;Samples;Min_cycle;Max_cycle;Signal;HPM_P1;HPM_P2
2021/10/22 00:00:45;;;;;;;3.51;2.49;;;;;;;11.42;66.50;100546.14;461530;113;922902;-82
2021/10/22 00:01:49;;;;;;;3.16;2.36;;;;;;;11.42;66.49;100541.52;462680;113;923473;-82
2021/10/22 00:02:52;;;;;;;4.02;2.23;;;;;;;11.43;66.46;100547.83;463128;113;930435;-82
2021/10/22 00:03:56;;;;;;;4.14;2.63;;;;;;;11.43;66.44;100548.66;463584;113;930481;-82
2021/10/22 00:05:00;;;;;;;3.98;2.90;;;;;;;11.43;66.38;100543.20;462700;113;923538;-82
2021/10/22 00:06:04;;;;;;;6.92;2.83;;;;;;;11.43;66.33;100535.02;462081;113;923389;-82
2021/10/22 00:07:09;;;;;;;5.68;2.79;;;;;;;11.42;66.31;100538.80;464129;113;922982;-82
2021/10/22 00:08:13;;;;;;;4.04;3.05;;;;;;;11.43;66.33;100536.91;462688;113;923348;-82
2021/10/22 00:09:16;;;;;;;3.99;2.90;;;;;;;11.42;66.36;100536.06;460636;113;923066;-82
2021/10/22 00:10:19;;;;;;;4.87;2.92;;;;;;;11.42;66.41;100535.22;461172;113;923179;-82
2021/10/22 00:11:23;;;;;;;5.71;3.02;;;;;;;11.43;66.40;100535.02;461324;113;930606;-83
2021/10/22 00:12:26;;;;;;;3.85;2.89;;;;;;;11.44;66.42;100523.04;464761;113;922526;-83
2021/10/22 00:13:30;;;;;;;6.31;3.98;;;;;;;11.45;66.41;100529.34;460889;113;922491;-83
2021/10/22 00:14:34;;;;;;;4.98;2.47;;;;;;;11.46;66.40;100531.02;462620;113;923001;-84
2021/10/22 00:15:37;;;;;;;5.22;2.92;;;;;;;11.46;66.39;100522.83;463119;113;922725;-83
2021/10/22 00:16:42;;;;;;;5.53;2.58;;;;;;;11.47;66.38;100527.20;462970;113;922502;-83
2021/10/22 00:17:46;;;;;;;7.06;2.75;;;;;;;11.46;66.35;100522.83;460605;113;930531;-82
2021/10/22 00:18:49;;;;;;;3.30;2.37;;;;;;;11.47;66.34;100522.58;463152;113;922749;-81
2021/10/22 00:19:53;;;;;;;3.38;2.29;;;;;;;11.46;66.31;100520.94;462593;112;922443;-82
2021/10/22 00:20:56;;;;;;;3.41;2.48;;;;;;;11.45;66.33;100511.06;468195;112;930365;-84
2021/10/22 00:22:00;;;;;;;3.98;2.56;;;;;;;11.46;66.33;100517.37;468951;112;922642;-82
2021/10/22 00:23:04;;;;;;;3.63;2.58;;;;;;;11.45;66.37;100513.80;470173;112;922948;-83
2021/10/22 00:24:07;;;;;;;3.55;2.55;;;;;;;11.46;66.39;100514.64;468786;112;930482;-82
2021/10/22 00:25:11;;;;;;;6.62;2.76;;;;;;;11.44;66.42;100511.28;468213;112;922681;-83
2021/10/22 00:26:14;;;;;;;3.42;2.48;;;;;;;11.45;66.45;100507.50;468777;112;930524;-83
2021/10/22 00:27:18;;;;;;;5.19;2.55;;;;;;;11.44;66.49;100505.82;470712;112;922951;-83
2021/10/22 00:28:22;;;;;;;3.38;2.65;;;;;;;11.44;66.49;100508.55;468085;112;930502;-83
2021/10/22 00:29:25;;;;;;;4.25;2.54;;;;;;;11.43;66.52;100509.60;471697;112;922461;-82
2021/10/22 00:30:30;;;;;;;2.78;2.51;;;;;;;11.42;66.57;100497.84;469284;112;923055;-81
2021/10/22 00:31:33;;;;;;;4.74;2.49;;;;;;;11.43;66.62;100509.60;468758;112;930288;-83
2021/10/22 00:32:37;;;;;;;4.46;2.44;;;;;;;11.44;66.64;100500.36;470048;112;930867;-82
2021/10/22 00:33:40;;;;;;;4.39;3.19;;;;;;;11.45;66.65;100493.84;468828;112;923012;-81
2021/10/22 00:34:44;;;;;;;3.89;2.33;;;;;;;11.46;66.66;100495.52;456880;114;922937;-81
2021/10/22 00:35:48;;;;;;;4.54;2.14;;;;;;;11.46;66.66;100498.25;460536;111;930570;-82
2021/10/22 00:36:52;;;;;;;5.18;2.53;;;;;;;11.46;66.69;100496.36;470406;112;930509;-84
2021/10/22 00:37:55;;;;;;;5.06;3.00;;;;;;;11.45;66.79;100491.12;468812;112;922452;-83
2021/10/22 00:38:58;;;;;;;3.51;2.61;;;;;;;11.44;66.73;100489.44;467175;111;922579;-82
2021/10/22 00:40:04;;;;;;;4.33;2.53;;;;;;;11.43;66.76;100493.22;467778;111;922664;-82
2021/10/22 00:41:08;;;;;;;3.48;2.43;;;;;;;11.43;66.84;100491.33;468145;112;922514;-84
2021/10/22 00:42:12;;;;;;;2.70;2.21;;;;;;;11.42;66.85;100491.55;468327;112;922464;-82
2021/10/22 00:43:15;;;;;;;5.21;2.65;;;;;;;11.41;66.94;100489.90;469792;112;930304;-83
2021/10/22 00:44:19;;;;;;;3.87;2.64;;;;;;;11.40;66.92;100496.41;468498;111;922881;-83
2021/10/22 00:45:23;;;;;;;3.11;2.22;;;;;;;11.39;66.96;100501.03;468979;112;923014;-83
2021/10/22 00:46:31;;;;;;;6.89;2.95;;;;;;;11.38;67.00;100487.59;470162;112;930242;-82
2021/10/22 00:47:35;;;;;;;3.18;2.64;;;;;;;11.36;67.02;100482.34;470379;112;923224;-82
2021/10/22 00:48:40;;;;;;;3.91;2.29;;;;;;;11.36;67.07;100487.81;469802;112;922612;-82
2021/10/22 00:49:45;;;;;;;3.57;2.31;;;;;;;11.36;67.09;100492.46;469324;112;922600;-84
2021/10/22 00:50:57;;;;;;;5.33;2.45;;;;;;;11.33;67.13;100482.81;468907;112;923029;-83
2021/10/22 00:52:02;;;;;;;4.23;2.51;;;;;;;11.32;67.16;100492.05;469424;112;930494;-83
2021/10/22 00:53:06;;;;;;;2.71;1.99;;;;;;;11.30;67.23;100492.27;469784;111;922488;-82
2021/10/22 00:54:12;;;;;;;2.98;2.28;;;;;;;11.29;67.32;100485.16;467775;112;922540;-82
2021/10/22 00:55:17;;;;;;;5.45;2.38;;;;;;;11.27;67.49;100484.53;468621;112;922564;-83
2021/10/22 00:56:20;;;;;;;3.55;2.65;;;;;;;11.25;67.60;100483.06;469245;112;923039;-83
2021/10/22 00:57:24;;;;;;;3.41;2.31;;;;;;;11.22;67.63;100489.82;470264;112;922516;-82
2021/10/22 00:58:28;;;;;;;3.96;2.18;;;;;;;11.21;67.72;100490.03;467689;112;922897;-83
2021/10/22 00:59:33;;;;;;;4.42;2.58;;;;;;;11.20;67.75;100486.47;470121;112;923086;-83
2021/10/22 01:00:38;;;;;;;3.18;2.14;;;;;;;11.19;67.99;100482.06;467903;112;922870;-82
2021/10/22 01:01:41;;;;;;;3.36;2.43;;;;;;;11.21;68.00;100492.77;468961;112;922960;-81
2021/10/22 01:02:45;;;;;;;3.65;2.16;;;;;;;11.20;68.26;100502.84;470305;112;923376;-80
2021/10/22 01:03:50;;;;;;;3.93;2.35;;;;;;;11.20;68.16;100497.38;469684;112;930539;-81
2021/10/22 01:04:54;;;;;;;4.61;2.91;;;;;;;11.22;68.29;100488.98;468222;112;930305;-81
2021/10/22 01:06:01;;;;;;;4.53;2.69;;;;;;;11.22;68.21;100492.55;470549;112;922521;-82
2021/10/22 01:07:07;;;;;;;2.97;2.38;;;;;;;11.23;68.21;100491.50;468805;112;930572;-83
2021/10/22 01:08:11;;;;;;;2.62;2.19;;;;;;;11.24;68.28;100492.34;468873;112;922545;-81
2021/10/22 01:09:16;;;;;;;3.43;2.24;;;;;;;11.26;68.27;100482.02;469710;112;922623;-83
2021/10/22 01:10:20;;;;;;;2.99;2.40;;;;;;;11.28;68.27;100490.83;468900;112;922688;-85
2021/10/22 01:11:23;;;;;;;5.01;2.39;;;;;;;11.29;68.37;100493.34;469628;112;923089;-85
2021/10/22 01:12:27;;;;;;;3.96;2.20;;;;;;;11.32;68.32;100477.56;469295;112;922541;-83
2021/10/22 01:13:31;;;;;;;3.61;2.37;;;;;;;11.33;68.28;100493.73;470420;112;922947;-83
2021/10/22 01:14:36;;;;;;;4.28;2.46;;;;;;;11.35;68.29;100477.14;469386;112;922615;-83
2021/10/22 01:15:39;;;;;;;3.73;2.27;;;;;;;11.37;68.27;100475.84;467702;112;930501;-81
2021/10/22 01:16:44;;;;;;;3.69;2.48;;;;;;;11.41;68.21;100478.98;471594;112;922533;-83
2021/10/22 01:17:48;;;;;;;4.72;2.30;;;;;;;11.42;68.18;100484.19;469071;112;930393;-83
2021/10/22 01:18:51;;;;;;;4.28;2.26;;;;;;;11.45;68.15;100489.23;469325;112;922530;-81
2021/10/22 01:19:54;;;;;;;3.18;2.56;;;;;;;11.47;68.11;100487.09;469053;112;923082;-83
2021/10/22 01:21:02;;;;;;;3.22;2.06;;;;;;;11.49;68.07;100486.88;467174;112;922526;-82
2021/10/22 01:22:09;;;;;;;3.48;2.31;;;;;;;11.51;68.01;100488.34;469487;112;923023;-82
2021/10/22 01:23:13;;;;;;;3.67;2.26;;;;;;;11.53;67.99;100485.36;469535;112;922475;-82
2021/10/22 01:24:18;;;;;;;6.11;2.56;;;;;;;11.55;67.94;100480.52;468778;112;923003;-81
2021/10/22 01:25:25;;;;;;;3.16;2.54;;;;;;;11.57;67.93;100481.15;468970;112;923018;-82
2021/10/22 01:26:30;;;;;;;3.16;2.38;;;;;;;11.59;67.87;100477.12;467390;112;923380;-81
2021/10/22 01:27:34;;;;;;;6.09;3.04;;;;;;;11.61;67.82;100488.66;468952;112;922492;-82
2021/10/22 01:28:40;;;;;;;3.56;2.43;;;;;;;11.63;67.80;100475.60;469924;112;923606;-83
2021/10/22 01:29:45;;;;;;;4.69;2.78;;;;;;;11.66;67.72;100485.25;468115;112;922512;-82
2021/10/22 01:30:49;;;;;;;3.24;2.36;;;;;;;11.67;67.70;100478.73;470355;112;923053;-83
2021/10/22 01:31:52;;;;;;;2.72;2.45;;;;;;;11.68;67.64;100473.06;468090;112;922552;-80
2021/10/22 01:32:59;;;;;;;4.66;2.18;;;;;;;11.73;67.35;100471.54;468725;112;922987;-82
2021/10/22 01:34:03;;;;;;;9.71;2.67;;;;;;;11.73;67.35;100471.54;467890;112;922585;-83
2021/10/22 01:35:09;;;;;;;3.75;2.51;;;;;;;11.74;67.51;100485.02;468619;112;922541;-81
2021/10/22 01:36:12;;;;;;;4.47;2.76;;;;;;;11.75;67.48;100480.36;468269;112;925440;-83
2021/10/22 01:37:16;;;;;;;3.14;2.23;;;;;;;11.75;67.46;100478.47;467559;112;922660;-81
2021/10/22 01:38:23;;;;;;;4.29;2.35;;;;;;;11.76;67.42;100468.38;468374;112;923052;-82
2021/10/22 01:39:28;;;;;;;4.54;2.66;;;;;;;11.76;67.42;100476.57;469341;112;930518;-82
2021/10/22 01:40:31;;;;;;;3.46;2.28;;;;;;;11.78;67.43;100469.00;469096;112;923036;-82
2021/10/22 01:41:36;;;;;;;4.31;2.24;;;;;;;11.78;67.39;100469.84;469204;112;923071;-81
2021/10/22 01:42:41;;;;;;;4.80;2.54;;;;;;;11.78;67.37;100466.27;467957;112;923450;-84
2021/10/22 01:43:44;;;;;;;3.54;2.88;;;;;;;11.80;67.40;100464.16;468799;111;922525;-83
2021/10/22 01:44:48;;;;;;;4.85;2.98;;;;;;;11.79;67.39;100466.05;468312;112;930792;-83
2021/10/22 01:45:52;;;;;;;3.08;2.27;;;;;;;11.81;67.37;100465.80;467578;112;922618;-84
2021/10/22 01:46:56;;;;;;;6.08;2.99;;;;;;;11.82;67.36;100467.48;469695;112;922684;-81
2021/10/22 01:48:00;;;;;;;3.04;2.52;;;;;;;11.84;67.34;100474.41;467464;112;923161;-81
2021/10/22 01:49:03;;;;;;;3.89;2.61;;;;;;;11.85;67.28;100470.62;460278;114;930459;-84
2021/10/22 01:50:08;;;;;;;3.54;2.60;;;;;;;11.87;67.24;100468.47;461709;112;923243;-82
2021/10/22 01:51:12;;;;;;;3.19;2.58;;;;;;;11.88;67.26;100474.77;468152;112;922551;-84
2021/10/22 01:52:16;;;;;;;3.57;2.81;;;;;;;11.90;67.23;100467.20;469311;112;930843;-83
2021/10/22 01:53:19;;;;;;;2.92;2.54;;;;;;;11.90;67.21;100475.39;470089;112;922551;-84
2021/10/22 01:54:23;;;;;;;3.77;2.64;;;;;;;11.90;67.20;100470.77;468162;112;922650;-84
2021/10/22 01:55:26;;;;;;;3.93;2.63;;;;;;;11.91;67.18;100475.15;469638;112;930613;-83
2021/10/22 01:56:30;;;;;;;4.12;2.57;;;;;;;11.91;67.20;100477.87;467755;112;930204;-80
2021/10/22 01:57:33;;;;;;;5.16;2.49;;;;;;;11.92;67.18;100485.02;469392;112;930453;-84
2021/10/22 01:58:36;;;;;;;4.69;2.95;;;;;;;11.93;67.20;100477.66;469251;112;922596;-81
2021/10/22 01:59:40;;;;;;;3.99;2.54;;;;;;;11.93;67.20;100480.39;469118;112;922731;-83
2021/10/22 02:00:44;;;;;;;4.29;2.90;;;;;;;11.94;67.16;100482.07;469823;112;922480;-80
2021/10/22 02:01:48;;;;;;;3.82;2.94;;;;;;;11.95;67.13;100483.75;469255;112;922900;-82
2021/10/22 02:02:51;;;;;;;4.50;2.83;;;;;;;11.95;67.13;100487.32;469779;112;922466;-83
2021/10/22 02:03:55;;;;;;;3.77;2.72;;;;;;;11.96;67.09;100483.50;469475;112;922540;-83
2021/10/22 02:04:59;;;;;;;5.69;2.59;;;;;;;11.96;67.08;100480.77;469511;112;930582;-82
2021/10/22 02:06:03;;;;;;;3.59;2.61;;;;;;;11.96;67.05;100486.23;468811;111;922846;-83
2021/10/22 02:07:07;;;;;;;3.54;2.49;;;;;;;11.96;67.07;100478.03;469173;112;922954;-83
2021/10/22 02:08:11;;;;;;;3.49;2.49;;;;;;;11.95;67.11;100481.85;469129;112;930517;-82
2021/10/22 02:09:15;;;;;;;4.29;3.18;;;;;;;11.96;67.03;100479.95;468620;112;930572;-83
2021/10/22 02:10:19;;;;;;;5.13;3.06;;;;;;;11.97;67.03;100487.07;468563;111;930571;-81
2021/10/22 02:11:23;;;;;;;2.72;2.47;;;;;;;11.97;67.03;100485.17;469825;112;922498;-82
2021/10/22 02:12:27;;;;;;;3.15;2.54;;;;;;;11.98;67.05;100497.78;468041;112;930356;-83
2021/10/22 02:13:30;;;;;;;3.79;3.38;;;;;;;11.99;66.98;100490.42;468654;112;922517;-83
2021/10/22 02:14:33;;;;;;;4.11;2.61;;;;;;;11.98;66.95;100488.75;467708;112;922564;-83
2021/10/22 02:15:37;;;;;;;3.72;2.72;;;;;;;11.99;66.92;100487.69;468792;112;922549;-84
2021/10/22 02:16:44;;;;;;;5.22;2.85;;;;;;;11.99;66.93;100477.60;468032;112;923186;-83
2021/10/22 02:17:48;;;;;;;5.87;3.01;;;;;;;11.99;66.92;100476.77;470688;112;930537;-84
2021/10/22 02:18:52;;;;;;;9.73;2.76;;;;;;;12.00;66.91;100482.01;469130;112;922812;-81
2021/10/22 02:19:55;;;;;;;3.86;2.64;;;;;;;12.01;66.86;100480.11;469320;112;923039;-82
2021/10/22 02:20:59;;;;;;;3.78;2.74;;;;;;;12.01;66.81;100480.95;469446;112;930297;-82
2021/10/22 02:22:02;;;;;;;3.86;2.76;;;;;;;12.01;66.84;100469.19;467331;112;930567;-82
2021/10/22 02:23:07;;;;;;;4.00;2.92;;;;;;;12.02;66.80;100485.33;468730;111;922623;-81
2021/10/22 02:24:11;;;;;;;3.64;2.76;;;;;;;12.01;66.77;100478.22;467282;112;922835;-82
2021/10/22 02:25:15;;;;;;;5.19;2.57;;;;;;;12.02;66.75;100482.59;470048;112;922388;-83
2021/10/22 02:26:20;;;;;;;3.39;2.44;;;;;;;12.03;66.74;100472.50;469256;112;922723;-81
2021/10/22 02:27:24;;;;;;;2.92;2.46;;;;;;;12.02;66.69;100482.59;468543;112;922900;-83
2021/10/22 02:28:31;;;;;;;3.89;2.77;;;;;;;12.03;66.69;100480.70;467275;112;930217;-82
2021/10/22 02:29:35;;;;;;;3.53;2.61;;;;;;;12.01;66.69;100467.29;468788;112;922843;-82
2021/10/22 02:30:38;;;;;;;4.37;3.09;;;;;;;12.01;66.67;100475.48;468418;112;923225;-83
2021/10/22 02:31:42;;;;;;;4.12;2.83;;;;;;;12.01;66.69;100467.29;471066;112;930469;-82
2021/10/22 02:32:48;;;;;;;6.07;3.41;;;;;;;12.02;66.63;100468.09;469071;112;922515;-84
2021/10/22 02:33:52;;;;;;;3.15;2.59;;;;;;;12.03;66.63;100472.50;469218;112;922550;-83
2021/10/22 02:34:55;;;;;;;4.66;3.78;;;;;;;12.03;66.58;100476.08;468642;112;923054;-82
2021/10/22 02:35:59;;;;;;;3.72;2.81;;;;;;;12.04;66.59;100475.02;469934;112;923035;-83
2021/10/22 02:37:03;;;;;;;6.51;2.94;;;;;;;12.05;66.60;100484.05;469053;112;930478;-82
2021/10/22 02:38:06;;;;;;;3.44;2.95;;;;;;;12.05;66.59;100481.32;468185;111;930609;-81
2021/10/22 02:39:10;;;;;;;6.89;3.25;;;;;;;12.05;66.57;100476.70;469335;111;923502;-82
2021/10/22 02:40:15;;;;;;;4.42;2.63;;;;;;;12.04;66.54;100480.48;467617;112;922454;-83
2021/10/22 02:41:19;;;;;;;4.99;2.86;;;;;;;12.06;66.50;100477.53;468410;112;922419;-85
2021/10/22 02:42:22;;;;;;;4.96;2.86;;;;;;;12.06;66.53;100475.64;470725;112;923381;-82
2021/10/22 02:43:25;;;;;;;4.33;2.72;;;;;;;12.06;66.53;100475.64;471502;112;922752;-81
2021/10/22 02:44:29;;;;;;;4.16;3.29;;;;;;;12.05;66.51;100471.23;469355;111;922609;-82
2021/10/22 02:45:32;;;;;;;4.37;3.02;;;;;;;12.05;66.51;100470.39;468710;112;922607;-84
2021/10/22 02:46:36;;;;;;;5.45;3.28;;;;;;;12.06;66.51;100469.34;469350;112;922481;-81
2021/10/22 02:47:40;;;;;;;5.14;3.07;;;;;;;12.07;66.54;100468.28;470400;112;922916;-84
2021/10/22 02:48:44;;;;;;;5.15;3.18;;;;;;;12.08;66.54;100469.92;469425;112;930567;-82
2021/10/22 02:49:47;;;;;;;4.91;3.11;;;;;;;12.08;66.50;100467.19;468783;111;922926;-82
2021/10/22 02:50:51;;;;;;;4.69;2.75;;;;;;;12.07;66.54;100463.62;468980;112;922465;-84
2021/10/22 02:51:56;;;;;;;4.62;2.72;;;;;;;12.08;66.58;100462.56;469435;112;930542;-82
2021/10/22 02:53:01;;;;;;;4.42;2.84;;;;;;;12.09;66.58;100466.97;467996;112;922609;-82
2021/10/22 02:54:04;;;;;;;3.42;2.98;;;;;;;12.09;66.63;100469.70;467900;112;922454;-83
2021/10/22 02:55:08;;;;;;;3.92;3.11;;;;;;;12.08;66.59;100470.77;468394;112;922752;-81
2021/10/22 02:56:13;;;;;;;4.22;3.11;;;;;;;12.08;66.63;100468.03;468232;112;923107;-80
2021/10/22 02:57:17;;;;;;;3.69;2.99;;;;;;;12.10;66.65;100459.61;469757;111;922860;-81
2021/10/22 02:58:21;;;;;;;5.46;2.95;;;;;;;12.10;66.63;100457.72;469103;112;922506;-80
2021/10/22 02:59:24;;;;;;;4.73;3.04;;;;;;;12.11;66.63;100461.28;468439;112;922759;-84
2021/10/22 03:00:28;;;;;;;4.32;3.03;;;;;;;12.11;66.66;100464.86;469957;111;930449;-84
2021/10/22 03:01:32;;;;;;;4.56;3.32;;;;;;;12.10;66.67;100463.19;468592;112;923035;-83
2021/10/22 03:02:36;;;;;;;5.11;3.31;;;;;;;12.10;66.70;100468.64;469221;112;922667;-83
2021/10/22 03:03:40;;;;;;;3.55;2.88;;;;;;;12.11;66.73;100466.75;469218;112;923114;-82
2021/10/22 03:04:43;;;;;;;6.11;3.46;;;;;;;12.11;66.74;100466.75;469446;112;922516;-83
2021/10/22 03:05:46;;;;;;;4.94;3.21;;;;;;;12.13;66.77;100474.73;470116;112;922487;-82
2021/10/22 03:06:50;;;;;;;4.41;3.39;;;;;;;12.13;66.79;100466.53;468839;112;923024;-83
2021/10/22 03:07:53;;;;;;;3.81;3.24;;;;;;;12.13;66.79;100472.00;470914;112;930478;-82
2021/10/22 03:08:57;;;;;;;3.33;2.60;;;;;;;12.13;66.78;100461.06;469118;112;922809;-82
2021/10/22 03:10:00;;;;;;;4.90;2.89;;;;;;;12.16;66.63;100463.33;470990;112;922573;-82
2021/10/22 03:11:03;;;;;;;3.66;2.64;;;;;;;12.16;66.63;100463.33;470019;112;930929;-82
2021/10/22 03:12:07;;;;;;;4.47;3.59;;;;;;;12.15;66.81;100459.77;470551;112;922667;-81
2021/10/22 03:13:10;;;;;;;5.46;3.15;;;;;;;12.16;66.84;100466.06;466396;112;922924;-83
2021/10/22 03:14:14;;;;;;;3.62;3.15;;;;;;;12.16;66.86;100463.33;467872;112;930608;-83
2021/10/22 03:15:18;;;;;;;5.09;3.41;;;;;;;12.16;66.90;100466.06;469023;112;922687;-81
2021/10/22 03:16:23;;;;;;;3.62;3.07;;;;;;;12.16;66.88;100458.70;469923;112;922722;-83
2021/10/22 03:17:26;;;;;;;4.65;3.01;;;;;;;12.19;66.93;100457.39;467280;112;922950;-83
2021/10/22 03:18:30;;;;;;;4.58;2.68;;;;;;;12.18;66.89;100464.79;469973;112;930490;-82
2021/10/22 03:19:34;;;;;;;3.66;2.68;;;;;;;12.19;66.93;100460.13;468849;112;922786;-82
2021/10/22 03:20:37;;;;;;;4.48;3.55;;;;;;;12.19;66.91;100463.70;470457;112;922555;-83
2021/10/22 03:21:41;;;;;;;3.58;3.28;;;;;;;12.20;66.93;100461.80;467989;112;930603;-85
2021/10/22 03:22:45;;;;;;;6.86;2.93;;;;;;;12.21;66.98;100450.65;467067;113;923084;-83
2021/10/22 03:23:54;;;;;;;4.91;3.44;;;;;;;12.20;67.01;100457.17;468080;113;922703;-82
2021/10/22 03:24:54;;;;;;;5.54;3.27;;;;;;;12.22;67.02;100465.16;468805;112;922083;-82
2021/10/22 03:25:57;;;;;;;4.14;3.08;;;;;;;12.22;67.05;100456.95;468214;112;922913;-82
2021/10/22 03:27:03;;;;;;;5.16;3.29;;;;;;;12.22;67.02;100463.27;468441;113;922885;-83
2021/10/22 03:28:06;;;;;;;4.12;2.87;;;;;;;12.22;67.05;100459.69;468723;113;930028;-82
2021/10/22 03:29:10;;;;;;;4.23;2.70;;;;;;;12.23;67.10;100469.56;468692;112;922196;-82
2021/10/22 03:30:14;;;;;;;5.66;3.43;;;;;;;12.24;67.10;100465.77;467693;112;930171;-81
2021/10/22 03:31:18;;;;;;;5.02;2.95;;;;;;;12.24;67.13;100454.84;469492;113;922341;-83
2021/10/22 03:32:21;;;;;;;4.21;3.02;;;;;;;12.25;67.15;100456.48;468835;112;922714;-80
2021/10/22 03:33:25;;;;;;;4.03;3.32;;;;;;;12.26;67.13;100449.95;468712;112;922124;-81
2021/10/22 03:34:29;;;;;;;6.89;3.64;;;;;;;12.27;67.14;100448.90;468368;112;922526;-80
2021/10/22 03:35:32;;;;;;;4.42;3.41;;;;;;;12.28;67.16;100448.68;468715;113;922092;-81
2021/10/22 03:36:37;;;;;;;6.06;3.91;;;;;;;12.30;67.16;100453.89;469219;113;922119;-82
2021/10/22 03:37:40;;;;;;;3.55;3.18;;;;;;;12.30;67.14;100456.63;467761;112;922280;-83
2021/10/22 03:38:44;;;;;;;4.88;3.40;;;;;;;12.32;67.13;100454.52;467945;113;922536;-81
2021/10/22 03:39:48;;;;;;;3.71;3.00;;;;;;;12.32;67.12;100452.62;468845;111;922199;-81
2021/10/22 03:40:51;;;;;;;4.34;3.27;;;;;;;12.33;67.13;100439.78;459456;115;922219;-82
2021/10/22 03:41:54;;;;;;;4.22;3.51;;;;;;;12.35;67.16;100443.94;459479;113;930227;-81
2021/10/22 03:42:58;;;;;;;4.51;3.94;;;;;;;12.36;67.14;100440.15;467797;113;922495;-81
2021/10/22 03:44:02;;;;;;;4.49;3.65;;;;;;;12.37;67.15;100446.45;468715;113;922062;-82
2021/10/22 03:45:06;;;;;;;4.68;3.39;;;;;;;12.37;67.16;100440.98;468443;112;921899;-81
2021/10/22 03:46:10;;;;;;;5.09;3.40;;;;;;;12.37;67.16;100449.19;468649;112;930182;-82
2021/10/22 03:47:14;;;;;;;4.29;3.29;;;;;;;12.36;67.19;100437.41;468620;113;922241;-84
2021/10/22 03:48:17;;;;;;;7.56;4.01;;;;;;;12.37;67.20;100450.02;467788;113;930086;-84
2021/10/22 03:49:21;;;;;;;6.39;4.00;;;;;;;12.37;67.28;100438.25;469332;113;922575;-80
2021/10/22 03:50:25;;;;;;;5.48;4.05;;;;;;;12.36;67.34;100440.15;468495;113;922684;-81
2021/10/22 03:51:29;;;;;;;5.29;3.99;;;;;;;12.36;67.38;100433.84;468951;113;922222;-81
2021/10/22 03:52:32;;;;;;;6.49;3.97;;;;;;;12.35;67.43;100438.47;469455;113;922815;-81
2021/10/22 03:53:36;;;;;;;5.13;4.21;;;;;;;12.37;67.49;100424.58;468207;113;930295;-82
2021/10/22 03:54:39;;;;;;;4.96;3.59;;;;;;;12.38;67.56;100428.98;468415;113;923728;-81
2021/10/22 03:55:43;;;;;;;5.61;4.47;;;;;;;12.37;67.58;100430.05;468899;113;921988;-81
2021/10/22 03:56:46;;;;;;;4.55;4.01;;;;;;;12.38;67.60;100424.36;468923;113;930156;-82
2021/10/22 03:57:50;;;;;;;5.32;4.16;;;;;;;12.39;67.70;100417.83;468899;113;922565;-82
2021/10/22 03:58:54;;;;;;;5.91;3.83;;;;;;;12.39;67.82;100422.46;458803;115;922599;-83
2021/10/22 03:59:58;;;;;;;4.57;4.05;;;;;;;12.39;67.78;100419.73;458631;113;922705;-82
2021/10/22 04:01:02;;;;;;;6.42;5.05;;;;;;;12.40;67.78;100416.77;467838;113;922825;-80
2021/10/22 04:02:06;;;;;;;8.72;6.27;;;;;;;12.40;67.78;100413.20;467423;113;930351;-80
2021/10/22 04:03:10;;;;;;;6.99;5.71;;;;;;;12.41;67.80;100417.58;468585;113;922703;-81
2021/10/22 04:04:13;;;;;;;5.04;4.44;;;;;;;12.42;67.84;100420.09;468082;113;930800;-81
2021/10/22 04:05:17;;;;;;;5.95;5.08;;;;;;;12.42;67.86;100421.98;467491;113;922726;-81
2021/10/22 04:06:21;;;;;;;8.34;6.02;;;;;;;12.43;67.88;100418.19;468026;113;930905;-82
2021/10/22 04:07:25;;;;;;;8.49;7.21;;;;;;;12.44;67.91;100420.70;467715;113;922377;-82
2021/10/22 04:08:28;;;;;;;6.82;6.11;;;;;;;12.45;67.91;100416.08;468013;113;926107;-81
2021/10/22 04:09:33;;;;;;;7.78;7.06;;;;;;;12.46;67.98;100423.19;467566;113;930078;-83
2021/10/22 04:10:41;;;;;;;7.08;6.01;;;;;;;12.47;67.95;100422.97;468520;113;922266;-81
2021/10/22 04:11:43;;;;;;;7.51;6.16;;;;;;;12.47;67.91;100422.97;467890;113;922301;-82
2021/10/22 04:12:48;;;;;;;8.52;7.06;;;;;;;12.48;67.91;100421.91;467633;113;922984;-80
2021/10/22 04:13:52;;;;;;;8.30;6.90;;;;;;;12.49;67.95;100429.05;466701;113;922604;-83
2021/10/22 04:14:56;;;;;;;5.34;4.86;;;;;;;12.51;67.97;100431.56;468440;113;922429;-82
2021/10/22 04:16:00;;;;;;;6.04;4.58;;;;;;;12.50;67.92;100432.63;467429;113;930432;-82
2021/10/22 04:17:03;;;;;;;4.85;4.29;;;;;;;12.53;67.99;100437.62;467467;113;923008;-83
2021/10/22 04:18:07;;;;;;;5.96;4.74;;;;;;;12.54;67.97;100431.92;467551;113;923530;-83
2021/10/22 04:19:11;;;;;;;9.51;4.77;;;;;;;12.56;67.98;100428.13;466739;113;930538;-83
2021/10/22 04:20:15;;;;;;;5.81;5.02;;;;;;;12.57;67.97;100430.61;467374;113;930606;-82
2021/10/22 04:21:18;;;;;;;6.74;4.94;;;;;;;12.59;68.02;100430.39;467751;113;930965;-82
2021/10/22 04:22:22;;;;;;;5.37;4.89;;;;;;;12.61;68.02;100433.73;467698;111;922358;-82
2021/10/22 04:23:25;;;;;;;5.61;4.69;;;;;;;12.61;68.11;100439.20;467796;113;930623;-83
2021/10/22 04:24:29;;;;;;;7.99;5.40;;;;;;;12.61;68.06;100433.73;467193;113;930510;-82
2021/10/22 04:25:34;;;;;;;5.48;4.87;;;;;;;12.61;68.08;100434.57;467710;113;923124;-83
2021/10/22 04:26:38;;;;;;;5.73;4.98;;;;;;;12.61;68.10;100434.57;457875;115;922603;-81
2021/10/22 04:27:41;;;;;;;5.71;5.28;;;;;;;12.63;68.13;100442.52;458772;113;922529;-83
2021/10/22 04:28:45;;;;;;;8.04;5.22;;;;;;;12.62;68.17;100436.25;467486;113;930578;-80
2021/10/22 04:29:48;;;;;;;6.61;5.27;;;;;;;12.61;68.20;100442.78;467823;113;930157;-81
2021/10/22 04:30:52;;;;;;;6.14;5.58;;;;;;;12.61;68.47;100442.78;468097;113;922285;-82
2021/10/22 04:31:56;;;;;;;6.29;5.75;;;;;;;12.60;68.50;100446.58;467865;113;930467;-84
2021/10/22 04:32:59;;;;;;;7.96;6.59;;;;;;;12.60;68.56;100443.00;467757;113;923062;-82
2021/10/22 04:34:03;;;;;;;6.78;5.89;;;;;;;12.58;68.69;100439.66;467498;113;928612;-82
2021/10/22 04:35:07;;;;;;;6.08;5.50;;;;;;;12.57;68.73;100447.02;467649;113;922526;-83
2021/10/22 04:36:13;;;;;;;6.08;5.53;;;;;;;12.57;68.72;100438.81;467285;113;923002;-81
2021/10/22 04:37:27;;;;;;;8.51;7.81;;;;;;;12.58;68.74;100447.86;467164;113;922637;-83
2021/10/22 04:41:17;;;;;;;7.35;6.66;;;;;;;12.58;68.98;100454.16;467958;113;922964;-81
2021/10/22 04:42:21;;;;;;;8.50;7.41;;;;;;;12.57;69.17;100452.48;467423;113;922972;-84
2021/10/22 04:43:25;;;;;;;11.61;6.95;;;;;;;12.57;69.12;100454.42;467146;113;922965;-82
2021/10/22 04:44:30;;;;;;;8.44;7.41;;;;;;;12.56;69.13;100453.58;466339;113;922533;-83
2021/10/22 04:45:37;;;;;;;7.97;7.16;;;;;;;12.56;69.14;100450.84;466724;113;922922;-81
2021/10/22 04:46:41;;;;;;;7.94;7.23;;;;;;;12.57;69.12;100447.02;466619;113;923079;-81
2021/10/22 04:47:45;;;;;;;7.07;6.42;;;;;;;12.60;69.17;100462.98;468266;113;922141;-83
2021/10/22 04:48:48;;;;;;;6.59;6.04;;;;;;;12.61;69.13;100458.35;467687;113;922334;-84
2021/10/22 04:49:53;;;;;;;8.46;6.39;;;;;;;12.63;69.22;100458.94;468697;113;930229;-81
2021/10/22 04:50:56;;;;;;;7.64;5.94;;;;;;;12.62;69.12;100471.81;467816;113;922279;-83
2021/10/22 04:52:00;;;;;;;6.90;6.19;;;;;;;12.63;69.10;100467.98;467378;113;922687;-82
2021/10/22 04:53:03;;;;;;;7.58;6.46;;;;;;;12.64;69.09;100472.39;466732;113;922513;-82
2021/10/22 04:54:07;;;;;;;16.71;7.26;;;;;;;12.65;69.06;100471.33;467992;113;923552;-80
2021/10/22 04:55:11;;;;;;;11.01;6.54;;;;;;;12.66;69.06;100467.53;468123;113;922989;-83
2021/10/22 04:56:15;;;;;;;8.74;6.54;;;;;;;12.69;68.99;100477.16;466740;113;922857;-81
2021/10/22 04:57:19;;;;;;;18.21;9.41;;;;;;;12.71;69.01;100469.57;467339;113;922455;-83